createdAt,value
2022-09-15T00:02:22.481Z,17.19
2022-09-15T00:04:49.452Z,17.18
2022-09-15T00:07:17.209Z,17.18
2022-09-15T00:09:43.946Z,17.20
2022-09-15T00:12:10.722Z,17.27
2022-09-15T00:14:37.592Z,17.33
2022-09-15T00:17:04.437Z,17.41
2022-09-15T00:19:31.304Z,17.46
2022-09-15T00:21:58.158Z,17.49
2022-09-15T00:24:24.912Z,17.51
2022-09-15T00:26:51.778Z,17.54
2022-09-15T00:29:18.969Z,17.57
2022-09-15T00:31:45.741Z,17.60
2022-09-15T00:34:14.155Z,17.62
2022-09-15T00:36:41.031Z,17.61
2022-09-15T00:39:07.880Z,17.58
2022-09-15T00:41:34.669Z,17.57
2022-09-15T00:44:05.028Z,17.55
2022-09-15T00:46:34.724Z,17.54
2022-09-15T00:49:17.745Z,17.54
2022-09-15T00:51:49.300Z,17.54
2022-09-15T00:54:20.299Z,17.50
2022-09-15T00:56:49.562Z,17.48
2022-09-15T00:59:20.767Z,17.47
2022-09-15T01:01:55.246Z,17.48
2022-09-15T01:04:22.378Z,17.49
2022-09-15T01:06:55.554Z,17.50
2022-09-15T01:09:29.678Z,17.49
2022-09-15T01:11:56.951Z,17.50
2022-09-15T01:14:23.783Z,17.49
2022-09-15T01:16:59.179Z,17.44
2022-09-15T01:19:42.808Z,17.36
2022-09-15T01:22:32.938Z,17.27
2022-09-15T01:25:22.933Z,17.20
2022-09-15T01:28:22.893Z,17.14
2022-09-15T01:31:00.438Z,17.10
2022-09-15T01:33:34.628Z,17.07
2022-09-15T01:36:05.566Z,17.07
2022-09-15T01:38:55.944Z,17.08
2022-09-15T01:41:30.138Z,17.04
2022-09-15T01:44:15.212Z,17.02
2022-09-15T01:46:47.283Z,16.99
2022-09-15T01:49:19.484Z,16.94
2022-09-15T01:51:48.602Z,16.94
2022-09-15T01:54:19.472Z,16.95
2022-09-15T01:56:46.533Z,16.95
2022-09-15T01:59:13.424Z,16.94
2022-09-15T02:01:49.822Z,16.93
2022-09-15T02:04:27.967Z,16.91
2022-09-15T02:07:02.604Z,16.92
2022-09-15T02:09:36.999Z,16.93
2022-09-15T02:12:20.748Z,16.95
2022-09-15T02:15:08.170Z,16.95
2022-09-15T02:17:39.140Z,16.95
2022-09-15T02:20:16.160Z,16.95
2022-09-15T02:22:48.852Z,16.98
2022-09-15T02:25:22.017Z,16.98
2022-09-15T02:27:55.165Z,17.00
2022-09-15T02:30:22.612Z,16.99
2022-09-15T02:32:56.331Z,16.99
2022-09-15T02:35:26.092Z,16.99
2022-09-15T02:37:54.613Z,16.98
2022-09-15T02:40:22.593Z,16.99
2022-09-15T02:42:56.075Z,16.98
2022-09-15T02:45:24.901Z,16.99
2022-09-15T02:47:51.743Z,16.99
2022-09-15T02:50:20.531Z,17.00
2022-09-15T02:52:47.264Z,17.02
2022-09-15T02:55:14.084Z,17.04
2022-09-15T02:57:40.886Z,17.06
2022-09-15T03:00:13.968Z,17.06
2022-09-15T03:02:42.263Z,17.08
2022-09-15T03:05:10.538Z,17.11
2022-09-15T03:07:38.608Z,17.12
2022-09-15T03:10:07.434Z,17.15
2022-09-15T03:12:39.985Z,17.16
2022-09-15T03:15:08.907Z,17.19
2022-09-15T03:17:37.339Z,17.21
2022-09-15T03:20:06.132Z,17.23
2022-09-15T03:22:32.939Z,17.24
2022-09-15T03:24:59.693Z,17.27
2022-09-15T03:27:27.051Z,17.29
2022-09-15T03:29:54.112Z,17.32
2022-09-15T03:32:20.881Z,17.34
2022-09-15T03:34:47.661Z,17.36
2022-09-15T03:37:14.560Z,17.38
2022-09-15T03:39:41.412Z,17.40
2022-09-15T03:42:08.214Z,17.40
2022-09-15T03:44:35.929Z,17.43
2022-09-15T03:47:04.080Z,17.45
2022-09-15T03:49:30.892Z,17.46
2022-09-15T03:51:58.959Z,17.48
2022-09-15T03:54:26.707Z,17.49
2022-09-15T03:56:53.677Z,17.51
2022-09-15T03:59:20.886Z,17.51
2022-09-15T04:01:49.430Z,17.53
2022-09-15T04:04:17.586Z,17.54
2022-09-15T04:06:44.988Z,17.55
2022-09-15T04:09:12.057Z,17.55
2022-09-15T04:11:40.908Z,17.55
2022-09-15T04:14:07.741Z,17.54
2022-09-15T04:16:34.625Z,17.56
2022-09-15T04:19:01.641Z,17.57
2022-09-15T04:21:28.473Z,17.57
2022-09-15T04:23:55.464Z,17.56
2022-09-15T04:26:27.726Z,17.56
2022-09-15T04:28:54.604Z,17.57
2022-09-15T04:31:21.499Z,17.57
2022-09-15T04:33:48.397Z,17.59
2022-09-15T04:36:19.417Z,17.59
2022-09-15T04:38:46.414Z,17.62
2022-09-15T04:41:14.642Z,17.63
2022-09-15T04:43:43.372Z,17.64
2022-09-15T04:46:11.478Z,17.64
2022-09-15T04:48:38.346Z,17.63
2022-09-15T04:51:08.353Z,17.64
2022-09-15T04:53:35.832Z,17.65
2022-09-15T04:56:05.581Z,17.66
2022-09-15T04:58:38.022Z,17.68
2022-09-15T05:01:10.616Z,17.71
2022-09-15T05:03:38.248Z,17.75
2022-09-15T05:06:07.183Z,17.78
2022-09-15T05:08:33.934Z,17.82
2022-09-15T05:11:02.380Z,17.85
2022-09-15T05:13:29.406Z,17.88
2022-09-15T05:15:56.248Z,17.91
2022-09-15T05:18:23.024Z,17.93
2022-09-15T05:20:49.767Z,17.95
2022-09-15T05:23:16.568Z,17.97
2022-09-15T05:25:43.410Z,18.00
2022-09-15T05:28:10.157Z,18.02
2022-09-15T05:30:44.082Z,18.00
2022-09-15T05:33:11.346Z,17.98
2022-09-15T05:35:38.114Z,17.94
2022-09-15T05:38:04.866Z,17.91
2022-09-15T05:40:33.273Z,17.90
2022-09-15T05:43:00.002Z,17.92
2022-09-15T05:45:26.896Z,17.92
2022-09-15T05:47:54.035Z,17.92
2022-09-15T05:50:20.834Z,17.94
2022-09-15T05:52:51.584Z,17.98
2022-09-15T05:55:18.615Z,18.03
2022-09-15T05:57:45.357Z,18.05
2022-09-15T06:00:12.939Z,18.08
2022-09-15T06:02:40.041Z,18.06
2022-09-15T06:05:07.133Z,18.06
2022-09-15T06:07:34.254Z,18.06
2022-09-15T06:10:00.996Z,18.04
2022-09-15T06:12:28.173Z,18.03
2022-09-15T06:14:54.975Z,18.04
2022-09-15T06:17:23.266Z,18.06
2022-09-15T06:19:50.009Z,18.07
2022-09-15T06:22:16.794Z,18.09
2022-09-15T06:24:43.536Z,18.13
2022-09-15T06:27:10.341Z,18.17
2022-09-15T06:29:37.116Z,18.22
2022-09-15T06:32:05.196Z,18.22
2022-09-15T06:34:33.502Z,18.22
2022-09-15T06:37:00.242Z,18.19
2022-09-15T06:39:27.173Z,18.16
2022-09-15T06:42:02.333Z,18.08
2022-09-15T06:44:30.403Z,17.98
2022-09-15T06:46:57.223Z,17.88
2022-09-15T06:49:24.120Z,17.80
2022-09-15T06:51:51.068Z,17.73
2022-09-15T06:54:18.095Z,17.67
2022-09-15T06:56:45.040Z,17.62
2022-09-15T06:59:12.813Z,17.58
2022-09-15T07:01:39.673Z,17.53
2022-09-15T07:04:10.679Z,17.48
2022-09-15T07:06:39.612Z,17.43
2022-09-15T07:09:07.311Z,17.42
2022-09-15T07:11:34.544Z,17.43
2022-09-15T07:14:01.429Z,17.42
2022-09-15T07:16:28.319Z,17.40
2022-09-15T07:18:57.260Z,17.36
2022-09-15T07:21:24.769Z,17.33
2022-09-15T07:23:51.809Z,17.31
2022-09-15T07:26:28.834Z,17.28
2022-09-15T07:28:58.479Z,17.23
2022-09-15T07:31:28.300Z,17.20
2022-09-15T07:33:55.606Z,17.21
2022-09-15T07:36:22.771Z,17.23
2022-09-15T07:38:50.128Z,17.29
2022-09-15T07:41:21.193Z,17.38
2022-09-15T07:43:49.979Z,17.46
2022-09-15T07:46:17.879Z,17.55
2022-09-15T07:48:46.080Z,17.60
2022-09-15T07:51:13.428Z,17.66
2022-09-15T07:53:40.281Z,17.66
2022-09-15T07:56:08.152Z,17.69
2022-09-15T07:58:35.086Z,17.74
2022-09-15T08:01:04.226Z,17.81
2022-09-15T08:03:31.218Z,17.96
2022-09-15T08:05:59.754Z,18.14
2022-09-15T08:08:26.992Z,18.36
2022-09-15T08:10:53.754Z,18.57
2022-09-15T08:13:20.514Z,18.82
2022-09-15T08:15:48.482Z,19.12
2022-09-15T08:18:15.434Z,19.41
2022-09-15T08:20:43.214Z,19.62
2022-09-15T08:23:11.406Z,19.76
2022-09-15T08:25:39.010Z,19.78
2022-09-15T08:28:05.959Z,19.74
2022-09-15T08:30:32.673Z,19.71
2022-09-15T08:32:59.454Z,19.61
2022-09-15T08:35:26.254Z,19.47
2022-09-15T08:37:55.336Z,19.45
2022-09-15T08:40:28.499Z,19.43
2022-09-15T08:43:00.567Z,19.35
2022-09-15T08:45:31.181Z,19.24
2022-09-15T08:48:03.355Z,19.21
2022-09-15T08:50:39.920Z,19.21
2022-09-15T08:53:13.246Z,19.19
2022-09-15T08:55:46.931Z,19.06
2022-09-15T08:58:18.926Z,18.85
2022-09-15T09:00:48.785Z,18.69
2022-09-15T09:03:31.255Z,18.59
2022-09-15T09:06:02.672Z,18.56
2022-09-15T09:08:34.494Z,18.55
2022-09-15T09:11:10.362Z,18.51
2022-09-15T09:13:38.013Z,18.46
2022-09-15T09:16:36.327Z,18.46
2022-09-15T09:19:28.025Z,18.50
2022-09-15T09:22:08.083Z,18.64
2022-09-15T09:24:41.554Z,18.78
2022-09-15T09:27:19.180Z,18.86
2022-09-15T09:29:50.105Z,18.96
2022-09-15T09:32:24.737Z,19.08
2022-09-15T09:35:01.242Z,19.12
2022-09-15T09:37:28.550Z,19.11
2022-09-15T09:39:55.316Z,19.16
2022-09-15T09:42:28.836Z,19.19
2022-09-15T09:44:55.839Z,19.21
2022-09-15T09:47:28.020Z,19.14
2022-09-15T09:49:54.732Z,19.08
2022-09-15T09:52:38.616Z,19.03
2022-09-15T09:55:21.776Z,19.12
2022-09-15T09:57:48.811Z,19.23
2022-09-15T10:00:31.745Z,19.38
2022-09-15T10:02:58.490Z,19.49
2022-09-15T10:05:25.470Z,19.65
2022-09-15T10:07:52.259Z,19.77
2022-09-15T10:10:23.885Z,19.90
2022-09-15T10:12:56.214Z,20.11
2022-09-15T10:15:25.520Z,20.34
2022-09-15T10:17:55.263Z,20.54
2022-09-15T10:20:38.236Z,20.64
2022-09-15T10:23:23.160Z,20.69
2022-09-15T10:26:00.200Z,20.72
2022-09-15T10:28:28.120Z,20.79
2022-09-15T10:31:11.628Z,20.75
2022-09-15T10:33:42.163Z,20.70
2022-09-15T10:36:32.162Z,20.70
2022-09-15T10:39:23.374Z,20.69
2022-09-15T10:42:07.816Z,20.67
2022-09-15T10:44:50.232Z,20.64
2022-09-15T10:47:33.792Z,20.63
2022-09-15T10:50:25.501Z,20.60
2022-09-15T10:53:00.515Z,20.49
2022-09-15T10:55:52.619Z,20.41
2022-09-15T10:58:42.160Z,20.37
2022-09-15T11:01:28.826Z,20.23
2022-09-15T11:04:06.859Z,20.17
2022-09-15T11:06:50.484Z,20.15
2022-09-15T11:09:35.927Z,20.14
2022-09-15T11:12:10.645Z,20.12
2022-09-15T11:15:10.142Z,20.07
2022-09-15T11:17:52.927Z,19.98
2022-09-15T11:20:29.027Z,19.98
2022-09-15T11:23:07.238Z,20.01
2022-09-15T11:25:41.542Z,20.12
2022-09-15T11:28:22.301Z,20.23
2022-09-15T11:31:09.919Z,20.28
2022-09-15T11:33:46.879Z,20.24
2022-09-15T11:36:18.293Z,20.14
2022-09-15T11:38:54.677Z,20.12
2022-09-15T11:41:44.557Z,20.11
2022-09-15T11:44:25.002Z,20.08
2022-09-15T11:47:13.741Z,20.05
2022-09-15T11:50:01.487Z,19.97
2022-09-15T11:52:48.175Z,19.92
2022-09-15T11:55:46.251Z,19.84
2022-09-15T11:58:44.479Z,19.73
2022-09-15T12:01:11.792Z,19.67
2022-09-15T12:04:02.031Z,19.73
2022-09-15T12:06:43.264Z,19.79
2022-09-15T12:09:15.172Z,19.83
2022-09-15T12:11:46.847Z,19.85
2022-09-15T12:14:22.555Z,19.85
2022-09-15T12:16:50.218Z,19.81
2022-09-15T12:19:37.622Z,19.73
2022-09-15T12:22:17.554Z,19.69
2022-09-15T12:24:53.506Z,19.66
2022-09-15T12:27:21.269Z,19.64
2022-09-15T12:29:53.907Z,19.59
2022-09-15T12:32:24.164Z,19.62
2022-09-15T12:35:13.388Z,19.62
2022-09-15T12:37:42.947Z,19.62
2022-09-15T12:40:26.242Z,19.54
2022-09-15T12:42:53.875Z,19.48
2022-09-15T12:45:27.536Z,19.45
2022-09-15T12:48:02.613Z,19.50
2022-09-15T12:50:36.573Z,19.51
2022-09-15T12:53:14.811Z,19.53
2022-09-15T12:55:51.168Z,19.48
2022-09-15T12:58:28.456Z,19.44
2022-09-15T13:01:19.301Z,19.33
2022-09-15T13:03:48.864Z,19.25
2022-09-15T13:06:34.360Z,19.21
2022-09-15T13:09:01.719Z,19.19
2022-09-15T13:11:38.285Z,19.13
2022-09-15T13:14:06.950Z,19.13
2022-09-15T13:16:43.879Z,19.09
2022-09-15T13:19:15.404Z,19.03
2022-09-15T13:21:48.002Z,18.89
2022-09-15T13:24:23.898Z,18.74
2022-09-15T13:26:55.811Z,18.58
2022-09-15T13:29:24.588Z,18.41
2022-09-15T13:32:02.267Z,18.42
2022-09-15T13:35:04.123Z,18.54
2022-09-15T13:38:08.043Z,18.74
2022-09-15T13:40:51.808Z,18.89
2022-09-15T13:43:40.629Z,18.98
2022-09-15T13:46:12.630Z,19.07
2022-09-15T13:49:00.541Z,19.08
2022-09-15T13:51:30.087Z,18.98
2022-09-15T13:54:02.883Z,18.89
2022-09-15T13:56:35.800Z,18.85
2022-09-15T13:59:11.238Z,18.77
2022-09-15T14:01:42.262Z,18.69
2022-09-15T14:04:16.817Z,18.56
2022-09-15T14:06:47.012Z,18.51
2022-09-15T14:09:18.587Z,18.49
2022-09-15T14:11:49.010Z,18.52
2022-09-15T14:14:34.739Z,18.46
2022-09-15T14:17:01.622Z,18.26
2022-09-15T14:19:38.435Z,18.10
2022-09-15T14:22:21.253Z,18.03
2022-09-15T14:24:50.157Z,18.00
2022-09-15T14:27:24.224Z,17.99
2022-09-15T14:29:55.466Z,17.98
2022-09-15T14:32:22.678Z,17.97
2022-09-15T14:34:51.122Z,17.96
2022-09-15T14:37:27.627Z,17.91
2022-09-15T14:39:57.512Z,17.85
2022-09-15T14:42:32.551Z,17.73
2022-09-15T14:48:08.072Z,17.58
2022-09-15T14:50:35.555Z,17.58
2022-09-15T14:53:04.496Z,17.57
2022-09-15T14:55:33.046Z,17.56
2022-09-15T14:58:02.420Z,17.54
2022-09-15T15:00:34.689Z,17.53
2022-09-15T15:03:17.617Z,17.52
2022-09-15T15:05:58.037Z,17.52
2022-09-15T15:08:30.217Z,17.43
2022-09-15T15:10:58.855Z,17.33
2022-09-15T15:13:26.423Z,17.29
2022-09-15T15:15:53.569Z,17.34
2022-09-15T15:18:37.393Z,17.40
2022-09-15T15:21:05.040Z,17.45
2022-09-15T15:23:32.388Z,17.47
2022-09-15T15:26:30.657Z,17.46
2022-09-15T15:28:57.408Z,17.41
2022-09-15T15:31:28.046Z,17.39
2022-09-15T15:33:59.366Z,17.38
2022-09-15T15:36:28.694Z,17.39
2022-09-15T15:39:06.649Z,17.38
2022-09-15T15:41:42.257Z,17.36
2022-09-15T15:44:17.055Z,17.35
2022-09-15T15:46:49.963Z,17.32
2022-09-15T15:49:18.081Z,17.29
2022-09-15T15:51:44.914Z,17.27
2022-09-15T15:54:11.872Z,17.27
2022-09-15T15:56:41.117Z,17.22
2022-09-15T15:59:11.939Z,17.15
2022-09-15T16:01:38.795Z,17.07
2022-09-15T16:04:06.350Z,17.01
2022-09-15T16:06:33.923Z,16.97
2022-09-15T16:09:01.559Z,16.94
2022-09-15T16:11:28.628Z,16.91
2022-09-15T16:13:56.199Z,16.90
2022-09-15T16:16:26.298Z,16.88
2022-09-15T16:18:53.565Z,16.87
2022-09-15T16:21:26.216Z,16.83
2022-09-15T16:23:53.111Z,16.76
2022-09-15T16:26:23.272Z,16.73
2022-09-15T16:28:51.256Z,16.71
2022-09-15T16:31:18.075Z,16.68
2022-09-15T16:33:44.922Z,16.66
2022-09-15T16:36:15.923Z,16.67
2022-09-15T16:38:43.366Z,16.69
2022-09-15T16:41:20.056Z,16.66
2022-09-15T16:43:47.474Z,16.63
2022-09-15T16:46:14.936Z,16.61
2022-09-15T16:48:43.557Z,16.59
2022-09-15T16:51:26.662Z,16.57
2022-09-15T16:53:56.926Z,16.52
2022-09-15T16:56:23.770Z,16.47
2022-09-15T16:58:54.799Z,16.41
2022-09-15T17:01:25.327Z,16.35
2022-09-15T17:03:52.057Z,16.30
2022-09-15T17:06:19.040Z,16.24
2022-09-15T17:08:46.117Z,16.20
2022-09-15T17:11:16.729Z,16.17
2022-09-15T17:13:44.786Z,16.13
2022-09-15T17:16:14.956Z,16.08
2022-09-15T17:18:41.781Z,16.04
2022-09-15T17:21:11.843Z,16.00
2022-09-15T17:23:42.967Z,15.97
2022-09-15T17:26:13.014Z,15.97
2022-09-15T17:28:40.991Z,15.95
2022-09-15T17:31:17.857Z,15.93
2022-09-15T17:33:45.175Z,15.88
2022-09-15T17:36:12.038Z,15.83
2022-09-15T17:38:41.214Z,15.78
2022-09-15T17:41:13.929Z,15.74
2022-09-15T17:43:40.618Z,15.72
2022-09-15T17:46:08.980Z,15.71
2022-09-15T17:48:38.652Z,15.70
2022-09-15T17:51:07.187Z,15.67
2022-09-15T17:53:35.269Z,15.66
2022-09-15T17:56:02.212Z,15.64
2022-09-15T17:58:31.436Z,15.62
2022-09-15T18:00:59.022Z,15.63
2022-09-15T18:03:29.157Z,15.64
2022-09-15T18:05:58.383Z,15.64
2022-09-15T18:08:26.384Z,15.61
2022-09-15T18:10:53.845Z,15.58
2022-09-15T18:13:23.977Z,15.55
2022-09-15T18:15:51.322Z,15.52
2022-09-15T18:18:21.195Z,15.50
2022-09-15T18:20:50.015Z,15.47
2022-09-15T18:23:19.658Z,15.43
2022-09-15T18:25:47.489Z,15.39
2022-09-15T18:28:15.864Z,15.34
2022-09-15T18:30:44.820Z,15.31
2022-09-15T18:33:18.677Z,15.28
2022-09-15T18:35:46.823Z,15.29
2022-09-15T18:38:13.983Z,15.29
2022-09-15T18:40:46.074Z,15.27
2022-09-15T18:43:12.977Z,15.26
2022-09-15T18:45:41.893Z,15.25
2022-09-15T18:48:12.735Z,15.22
2022-09-15T18:50:41.652Z,15.21
2022-09-15T18:53:09.145Z,15.20
2022-09-15T18:55:35.910Z,15.19
2022-09-15T18:58:02.877Z,15.19
2022-09-15T19:00:29.835Z,15.14
2022-09-15T19:03:01.629Z,15.10
2022-09-15T19:05:30.199Z,15.08
2022-09-15T19:07:57.595Z,15.08
2022-09-15T19:10:25.627Z,15.08
2022-09-15T19:12:53.162Z,15.10
2022-09-15T19:15:23.648Z,15.12
2022-09-15T19:17:50.746Z,15.09
2022-09-15T19:20:17.641Z,15.06
2022-09-15T19:22:44.449Z,15.03
2022-09-15T19:25:12.248Z,14.99
2022-09-15T19:27:39.886Z,14.99
2022-09-15T19:30:10.459Z,15.00
2022-09-15T19:32:39.380Z,15.01
2022-09-15T19:35:06.907Z,15.04
2022-09-15T19:37:37.553Z,15.08
2022-09-15T19:40:08.723Z,15.10
2022-09-15T19:42:36.802Z,15.10
2022-09-15T19:45:04.095Z,15.06
2022-09-15T19:47:30.897Z,14.99
2022-09-15T19:49:58.125Z,14.97
2022-09-15T19:52:25.554Z,14.97
2022-09-15T19:54:52.308Z,14.95
2022-09-15T19:57:19.300Z,14.90
2022-09-15T19:59:46.064Z,14.90
2022-09-15T20:02:13.413Z,14.89
2022-09-15T20:07:24.960Z,14.81
2022-09-15T20:10:07.851Z,14.76
2022-09-15T20:12:34.897Z,14.71
2022-09-15T20:15:01.920Z,14.67
2022-09-15T20:17:28.944Z,14.65
2022-09-15T20:19:55.882Z,14.62
2022-09-15T20:22:23.045Z,14.61
2022-09-15T20:24:49.936Z,14.59
2022-09-15T20:27:16.791Z,14.58
2022-09-15T20:29:43.606Z,14.57
2022-09-15T20:32:10.447Z,14.57
2022-09-15T20:34:37.288Z,14.57
2022-09-15T20:37:04.310Z,14.56
2022-09-15T20:39:31.110Z,14.57
2022-09-15T20:41:58.162Z,14.55
2022-09-15T20:44:25.083Z,14.57
2022-09-15T20:46:52.638Z,14.56
2022-09-15T20:49:20.074Z,14.54
2022-09-15T20:51:46.995Z,14.52
2022-09-15T20:54:13.958Z,14.52
2022-09-15T20:56:41.075Z,14.49
2022-09-15T20:59:10.403Z,14.45
2022-09-15T21:01:38.948Z,14.44
2022-09-15T21:04:08.246Z,14.41
2022-09-15T21:06:35.986Z,14.39
2022-09-15T21:09:04.364Z,14.41
2022-09-15T21:11:31.674Z,14.42
2022-09-15T21:13:58.953Z,14.42
2022-09-15T21:16:28.255Z,14.37
2022-09-15T21:18:57.074Z,14.34
2022-09-15T21:21:26.333Z,14.29
2022-09-15T21:23:55.663Z,14.29
2022-09-15T21:26:24.994Z,14.26
2022-09-15T21:28:51.906Z,14.27
2022-09-15T21:31:21.331Z,14.28
2022-09-15T21:33:49.296Z,14.27
2022-09-15T21:36:21.441Z,14.25
2022-09-15T21:38:49.815Z,14.23
2022-09-15T21:41:18.915Z,14.22
2022-09-15T21:43:46.771Z,14.20
2022-09-15T21:46:16.996Z,14.16
2022-09-15T21:48:46.236Z,14.18
2022-09-15T21:51:14.552Z,14.17
2022-09-15T21:53:43.181Z,14.16
2022-09-15T21:56:12.061Z,14.15
2022-09-15T21:58:42.862Z,14.16
2022-09-15T22:01:13.293Z,14.15
2022-09-15T22:03:42.333Z,14.11
2022-09-15T22:06:11.574Z,14.05
2022-09-15T22:08:39.950Z,14.01
2022-09-15T22:11:07.991Z,13.97
2022-09-15T22:13:39.177Z,13.94
2022-09-15T22:16:09.059Z,13.90
2022-09-15T22:18:37.185Z,13.86
2022-09-15T22:21:05.624Z,13.82
2022-09-15T22:23:32.642Z,13.77
2022-09-15T22:26:02.461Z,13.70
2022-09-15T22:28:29.503Z,13.65
2022-09-15T22:30:58.536Z,13.60
2022-09-15T22:33:26.025Z,13.59
2022-09-15T22:35:52.859Z,13.59
2022-09-15T22:38:19.818Z,13.59
2022-09-15T22:40:46.676Z,13.57
2022-09-15T22:43:13.625Z,13.56
2022-09-15T22:45:40.923Z,13.54
2022-09-15T22:48:07.965Z,13.53
2022-09-15T22:50:34.967Z,13.54
2022-09-15T22:53:01.937Z,13.53
2022-09-15T22:55:30.963Z,13.52
2022-09-15T22:57:58.205Z,13.52
2022-09-15T23:00:25.268Z,13.52
2022-09-15T23:02:52.733Z,13.51
2022-09-15T23:05:19.774Z,13.50
2022-09-15T23:07:46.493Z,13.49
2022-09-15T23:10:13.294Z,13.48
2022-09-15T23:12:40.124Z,13.46
2022-09-15T23:15:07.539Z,13.46
2022-09-15T23:17:34.893Z,13.45
2022-09-15T23:20:01.978Z,13.44
2022-09-15T23:22:28.757Z,13.47
2022-09-15T23:24:55.464Z,13.49
2022-09-15T23:27:22.171Z,13.50
2022-09-15T23:29:48.887Z,13.50
2022-09-15T23:32:15.840Z,13.49
2022-09-15T23:34:42.607Z,13.47
2022-09-15T23:37:09.330Z,13.46
2022-09-15T23:39:36.120Z,13.45
2022-09-15T23:42:02.983Z,13.46
2022-09-15T23:44:29.727Z,13.47
2022-09-15T23:46:56.495Z,13.48
2022-09-15T23:49:23.410Z,13.49
2022-09-15T23:51:50.097Z,13.46
2022-09-15T23:54:16.894Z,13.45
2022-09-15T23:56:43.702Z,13.41
2022-09-15T23:59:10.405Z,13.41
